Time;durP1;ratioP1;P1;durP2;ratioP2;P2;SDS_P1;SDS_P2;PMS_P1;PMS_P2;Temp;Humidity;BMP_temperature;BMP_pressure;BME280_temperature;BME280_humidity;BME280_pressure;Samples;Min_cycle;Max_cycle;Signal;HPM_P1;HPM_P2
2021/08/30 00:02:21;;;;;;;23.08;18.30;;;;;;;17.22;100.00;101067.81;5000941;28;20230;-78
2021/08/30 00:04:50;;;;;;;20.27;18.13;;;;;;;17.17;100.00;101063.22;5004977;28;20190;-78
2021/08/30 00:07:15;;;;;;;21.73;18.73;;;;;;;17.15;100.00;101070.09;5000245;28;20609;-78
2021/08/30 00:09:41;;;;;;;21.80;19.48;;;;;;;17.06;100.00;101059.00;5000288;28;20194;-80
2021/08/30 00:12:07;;;;;;;23.33;18.73;;;;;;;17.14;100.00;101057.47;4985470;28;20260;-79
2021/08/30 00:14:36;;;;;;;21.30;19.00;;;;;;;17.18;100.00;101059.34;4999486;28;20186;-79
2021/08/30 00:17:05;;;;;;;21.88;19.50;;;;;;;17.12;100.00;101059.72;5000963;28;20736;-79
2021/08/30 00:19:34;;;;;;;24.52;18.90;;;;;;;17.09;100.00;101060.34;5002235;28;20589;-79
2021/08/30 00:22:01;;;;;;;24.03;19.37;;;;;;;17.08;100.00;101064.19;5006045;28;20217;-80
2021/08/30 00:24:31;;;;;;;24.73;19.38;;;;;;;17.05;100.00;101073.88;4969758;28;20675;-79
2021/08/30 00:26:59;;;;;;;23.35;19.42;;;;;;;17.04;100.00;101068.69;4997536;28;20734;-79
2021/08/30 00:29:27;;;;;;;23.52;19.65;;;;;;;17.08;100.00;101069.69;4996579;28;20241;-79
2021/08/30 00:31:56;;;;;;;28.05;20.15;;;;;;;17.08;100.00;101066.94;4981652;28;20237;-78
2021/08/30 00:34:21;;;;;;;22.83;19.08;;;;;;;17.14;100.00;101068.47;4963619;28;20182;-78
2021/08/30 00:36:47;;;;;;;24.95;20.65;;;;;;;17.14;100.00;101068.47;4998683;28;20229;-80
2021/08/30 00:39:16;;;;;;;21.88;19.55;;;;;;;17.08;100.00;101059.50;5000215;28;20197;-78
2021/08/30 00:41:41;;;;;;;22.02;19.45;;;;;;;16.97;100.00;101071.00;4998173;28;20221;-79
2021/08/30 00:44:07;;;;;;;21.90;19.25;;;;;;;17.01;100.00;101072.00;4996159;28;20271;-78
2021/08/30 00:46:34;;;;;;;23.58;19.38;;;;;;;17.02;100.00;101073.66;5000688;28;20230;-80
2021/08/30 00:49:02;;;;;;;21.25;18.10;;;;;;;16.95;100.00;101067.75;5003067;28;20747;-79
2021/08/30 00:51:28;;;;;;;22.10;18.73;;;;;;;17.04;100.00;101068.69;4987112;28;20225;-78
2021/08/30 00:53:58;;;;;;;20.17;18.08;;;;;;;16.93;100.00;101064.50;5002882;28;20178;-80
2021/08/30 00:56:24;;;;;;;18.70;16.88;;;;;;;16.99;100.00;101077.00;5004426;28;20253;-78
2021/08/30 00:58:52;;;;;;;19.13;17.17;;;;;;;16.97;100.00;101069.06;5003328;28;20570;-77
2021/08/30 01:01:17;;;;;;;19.20;16.80;;;;;;;17.03;100.00;101078.00;5001740;28;20225;-79
2021/08/30 01:03:45;;;;;;;19.38;17.38;;;;;;;17.05;100.00;101082.09;5003296;28;20197;-78
2021/08/30 01:06:22;;;;;;;17.83;15.85;;;;;;;17.04;100.00;101085.94;4985400;28;20244;-77
2021/08/30 01:09:05;;;;;;;19.08;16.35;;;;;;;17.00;100.00;101078.63;5000969;28;20244;-80
2021/08/30 01:11:34;;;;;;;18.20;16.20;;;;;;;17.04;100.00;101074.16;5003285;28;20229;-78
2021/08/30 01:14:03;;;;;;;17.92;16.02;;;;;;;17.10;100.00;101078.44;4999945;28;20548;-77
2021/08/30 01:16:31;;;;;;;18.05;15.75;;;;;;;17.08;100.00;101086.16;4996519;28;20225;-79
2021/08/30 01:18:59;;;;;;;17.00;15.23;;;;;;;17.13;100.00;101081.38;4983242;28;20682;-78
2021/08/30 01:21:31;;;;;;;18.60;14.80;;;;;;;17.12;100.00;101082.53;5002962;28;20226;-79
2021/08/30 01:23:59;;;;;;;17.67;15.82;;;;;;;17.13;100.00;101075.09;5001142;28;20854;-78
2021/08/30 01:26:30;;;;;;;16.80;15.20;;;;;;;17.21;100.00;101086.19;4970849;28;20742;-78
2021/08/30 01:29:23;;;;;;;17.73;15.82;;;;;;;17.27;100.00;101092.38;5000051;28;20186;-78
2021/08/30 01:32:01;;;;;;;19.45;16.88;;;;;;;17.42;100.00;101079.97;4999454;28;20691;-78
2021/08/30 01:34:29;;;;;;;19.10;16.25;;;;;;;17.40;100.00;101084.16;4999823;28;20205;-78
2021/08/30 01:36:55;;;;;;;22.02;16.77;;;;;;;17.35;100.00;101073.28;4998630;28;20275;-78
2021/08/30 01:39:29;;;;;;;18.48;16.50;;;;;;;17.32;100.00;101097.78;4982488;28;20178;-78
2021/08/30 01:42:00;;;;;;;24.17;18.52;;;;;;;17.36;100.00;101088.63;4999455;28;20241;-78
2021/08/30 01:44:28;;;;;;;21.05;18.23;;;;;;;17.33;100.00;101083.75;4999015;28;20213;-78
2021/08/30 01:46:56;;;;;;;21.27;19.00;;;;;;;17.24;100.00;101084.78;4971842;28;20740;-78
2021/08/30 01:49:26;;;;;;;21.35;19.05;;;;;;;17.30;100.00;101081.59;4977747;28;20178;-78
2021/08/30 01:51:52;;;;;;;25.60;18.67;;;;;;;17.33;100.00;101084.56;4987310;28;20240;-78
2021/08/30 01:54:17;;;;;;;23.75;20.33;;;;;;;17.34;100.00;101080.72;4994682;28;20197;-78
2021/08/30 01:56:51;;;;;;;24.17;21.02;;;;;;;17.36;100.00;101078.47;4979031;28;20227;-78
2021/08/30 02:02:07;;;;;;;24.15;20.02;;;;;;;17.29;100.00;101081.91;4999451;28;20221;-78
2021/08/30 02:04:35;;;;;;;24.52;19.92;;;;;;;17.37;100.00;101080.09;4998167;28;20216;-79
2021/08/30 02:07:04;;;;;;;26.60;21.25;;;;;;;17.30;100.00;101083.56;4995429;28;20226;-78
2021/08/30 02:09:29;;;;;;;25.77;21.77;;;;;;;17.30;100.00;101067.06;4996300;28;20185;-77
2021/08/30 02:11:55;;;;;;;29.08;22.30;;;;;;;17.25;100.00;101069.91;4996165;28;20288;-78
2021/08/30 02:14:24;;;;;;;27.13;21.80;;;;;;;17.28;100.00;101075.63;4996391;28;20189;-78
2021/08/30 02:16:50;;;;;;;27.42;21.27;;;;;;;17.20;100.00;101067.28;4998391;28;20272;-78
2021/08/30 02:19:32;;;;;;;25.63;22.02;;;;;;;17.23;100.00;101074.91;4997508;28;20200;-78
2021/08/30 02:22:19;;;;;;;25.65;21.75;;;;;;;17.20;100.00;101078.28;4996775;28;21003;-78
2021/08/30 02:24:50;;;;;;;25.90;20.92;;;;;;;17.10;100.00;101067.44;4983842;28;20197;-79
2021/08/30 02:27:34;;;;;;;29.17;22.38;;;;;;;17.20;100.00;101070.03;4982568;28;20283;-78
2021/08/30 02:30:03;;;;;;;26.73;22.52;;;;;;;17.20;100.00;101067.28;4997443;28;20188;-79
2021/08/30 02:32:30;;;;;;;27.00;21.88;;;;;;;17.24;100.00;101068.31;4998213;28;20193;-78
2021/08/30 02:34:59;;;;;;;26.95;22.98;;;;;;;17.17;100.00;101067.91;4981641;28;20257;-78
2021/08/30 02:37:29;;;;;;;24.55;21.67;;;;;;;17.15;100.00;101076.41;4979353;28;20279;-79
2021/08/30 02:39:57;;;;;;;28.67;23.67;;;;;;;17.05;100.00;101071.13;4967129;28;20261;-78
2021/08/30 02:42:25;;;;;;;26.15;23.35;;;;;;;17.13;100.00;101075.88;4997634;28;20770;-79
2021/08/30 02:44:52;;;;;;;27.73;23.92;;;;;;;17.09;100.00;101079.56;4980745;28;20197;-78
2021/08/30 02:47:18;;;;;;;28.63;24.00;;;;;;;17.19;100.00;101066.47;4995892;28;20280;-78
2021/08/30 02:49:44;;;;;;;25.58;22.75;;;;;;;17.18;100.00;101080.47;4997217;28;20578;-78
2021/08/30 02:52:10;;;;;;;26.65;23.83;;;;;;;17.08;100.00;101066.94;4996946;28;20722;-79
2021/08/30 02:54:36;;;;;;;27.00;22.38;;;;;;;17.03;100.00;101072.53;4997244;28;20643;-78
2021/08/30 02:57:03;;;;;;;25.40;22.42;;;;;;;17.05;100.00;101064.78;4997629;28;20233;-78
2021/08/30 02:59:29;;;;;;;27.02;22.23;;;;;;;17.06;100.00;101067.25;4995638;28;20197;-79
2021/08/30 03:01:57;;;;;;;27.75;21.40;;;;;;;17.02;100.00;101065.41;4997636;28;20229;-79
2021/08/30 03:04:25;;;;;;;24.13;20.50;;;;;;;16.94;100.00;101068.88;4980217;28;20214;-78
2021/08/30 03:06:55;;;;;;;23.63;20.48;;;;;;;16.91;100.00;101068.66;4993653;28;20681;-76
2021/08/30 03:09:23;;;;;;;23.17;19.25;;;;;;;16.90;100.00;101067.03;4996429;28;20193;-78
2021/08/30 03:11:49;;;;;;;23.08;20.33;;;;;;;16.92;100.00;101067.53;4999310;28;20245;-79
2021/08/30 03:14:15;;;;;;;21.85;19.25;;;;;;;16.99;100.00;101068.75;4996149;28;20647;-79
2021/08/30 03:16:41;;;;;;;23.50;19.33;;;;;;;17.05;100.00;101075.78;4999412;28;20289;-78
2021/08/30 03:19:11;;;;;;;20.30;18.23;;;;;;;16.98;100.00;101059.72;4996575;28;20606;-78
2021/08/30 03:21:39;;;;;;;20.25;18.13;;;;;;;17.12;100.00;101070.69;4982024;28;20225;-78
2021/08/30 03:24:05;;;;;;;23.02;18.38;;;;;;;17.15;100.00;101061.88;4978719;28;20655;-78
2021/08/30 03:26:33;;;;;;;21.60;19.05;;;;;;;17.05;100.00;101073.03;4980118;28;20615;-78
2021/08/30 03:28:58;;;;;;;21.05;18.73;;;;;;;17.02;100.00;101070.91;4994585;28;20243;-78
2021/08/30 03:31:26;;;;;;;20.30;18.08;;;;;;;17.01;100.00;101063.78;4994759;28;20229;-78
2021/08/30 03:33:52;;;;;;;21.90;18.30;;;;;;;17.05;100.00;101065.63;4994887;28;20182;-77
2021/08/30 03:36:20;;;;;;;20.88;17.98;;;;;;;16.99;100.00;101066.00;4994987;28;20700;-76
2021/08/30 03:38:45;;;;;;;19.73;17.63;;;;;;;16.99;100.00;101071.50;4992610;28;20190;-78
2021/08/30 03:41:11;;;;;;;24.17;17.83;;;;;;;16.99;100.00;101071.50;4979042;28;20232;-78
2021/08/30 03:43:37;;;;;;;18.92;17.08;;;;;;;16.94;100.00;101074.38;4996315;28;20200;-78
2021/08/30 03:46:02;;;;;;;19.58;17.17;;;;;;;17.08;100.00;101075.19;4978994;28;20244;-77
2021/08/30 03:48:28;;;;;;;20.35;17.77;;;;;;;17.01;100.00;101074.75;4994485;28;20213;-78
2021/08/30 03:50:59;;;;;;;19.48;17.20;;;;;;;17.00;100.00;101068.47;4980804;28;20233;-78
2021/08/30 03:53:26;;;;;;;20.02;17.10;;;;;;;17.05;100.00;101073.03;4994945;28;20186;-78
2021/08/30 03:55:52;;;;;;;20.95;17.67;;;;;;;17.04;100.00;101074.97;4961655;28;20284;-78
2021/08/30 03:58:20;;;;;;;19.08;16.63;;;;;;;16.99;100.00;101071.50;4982092;28;20327;-79
2021/08/30 04:00:46;;;;;;;19.80;16.90;;;;;;;17.04;100.00;101074.97;4991807;28;20304;-78
2021/08/30 04:03:12;;;;;;;18.30;16.30;;;;;;;16.95;100.00;101078.72;4991788;28;20205;-77
2021/08/30 04:05:39;;;;;;;18.58;15.82;;;;;;;16.95;100.00;101075.97;4963277;28;20252;-78
2021/08/30 04:08:08;;;;;;;17.88;14.63;;;;;;;16.90;100.00;101067.84;4993512;28;20194;-78
2021/08/30 04:10:33;;;;;;;17.25;15.45;;;;;;;16.99;100.00;101077.00;4997431;28;20622;-78
2021/08/30 04:13:04;;;;;;;16.95;15.23;;;;;;;16.94;100.00;101079.84;4985779;28;20178;-78
2021/08/30 04:15:30;;;;;;;16.45;14.73;;;;;;;16.88;100.00;101081.06;4999893;28;20233;-78
2021/08/30 04:17:56;;;;;;;15.70;13.77;;;;;;;16.96;100.00;101083.91;4998951;28;20221;-79
2021/08/30 04:20:23;;;;;;;15.90;13.90;;;;;;;17.01;100.00;101088.47;5001299;28;20193;-79
2021/08/30 04:22:49;;;;;;;17.15;13.57;;;;;;;16.98;100.00;101083.63;4988757;28;20691;-79
2021/08/30 04:25:15;;;;;;;17.15;14.15;;;;;;;16.98;100.00;101084.44;4984369;28;20204;-78
2021/08/30 04:27:40;;;;;;;14.95;13.43;;;;;;;17.08;100.00;101086.97;4999236;28;20198;-78
2021/08/30 04:30:09;;;;;;;14.27;12.68;;;;;;;17.14;100.00;101084.94;4998371;28;20194;-78
2021/08/30 04:32:38;;;;;;;15.45;13.95;;;;;;;17.08;100.00;101091.66;4995206;28;20177;-78
2021/08/30 04:35:05;;;;;;;16.63;14.95;;;;;;;17.17;100.00;101087.91;4989524;28;20221;-78
2021/08/30 04:37:31;;;;;;;16.50;14.73;;;;;;;17.07;100.00;101085.34;4992731;28;20700;-78
2021/08/30 04:39:57;;;;;;;17.08;15.13;;;;;;;17.04;100.00;101093.38;4994986;28;20277;-77
2021/08/30 04:42:25;;;;;;;17.13;15.02;;;;;;;17.02;100.00;101090.94;4976393;28;20279;-78
2021/08/30 04:44:50;;;;;;;17.67;14.73;;;;;;;16.95;100.00;101086.97;4978434;28;20243;-78
2021/08/30 04:47:16;;;;;;;17.05;15.25;;;;;;;16.92;100.00;101098.53;5011930;28;20222;-78
2021/08/30 04:49:42;;;;;;;16.60;14.20;;;;;;;16.89;100.00;101093.66;4994729;28;20185;-77
2021/08/30 04:52:08;;;;;;;17.73;15.20;;;;;;;16.85;100.00;101098.13;4995035;28;20792;-77
2021/08/30 04:54:33;;;;;;;19.10;16.20;;;;;;;16.81;100.00;101091.63;4998459;28;20278;-78
2021/08/30 04:57:02;;;;;;;18.67;15.90;;;;;;;16.92;100.00;101093.03;4997927;28;20287;-78
2021/08/30 04:59:27;;;;;;;19.63;16.07;;;;;;;16.91;100.00;101101.59;4998160;28;20188;-76
2021/08/30 05:01:53;;;;;;;18.33;16.40;;;;;;;16.81;100.00;101094.38;4981441;28;20221;-76
2021/08/30 05:04:21;;;;;;;18.42;16.55;;;;;;;16.87;100.00;101090.41;4994996;28;20205;-79
2021/08/30 05:06:46;;;;;;;18.48;16.52;;;;;;;16.89;100.00;101093.66;4978918;28;20242;-80
2021/08/30 05:09:15;;;;;;;19.15;17.13;;;;;;;16.83;100.00;101100.38;4979343;28;20193;-78
2021/08/30 05:11:41;;;;;;;20.25;16.52;;;;;;;16.81;100.00;101101.78;4996555;28;20710;-78
2021/08/30 05:14:08;;;;;;;19.95;16.05;;;;;;;16.89;100.00;101101.91;4998940;28;20182;-78
2021/08/30 05:16:34;;;;;;;19.27;16.60;;;;;;;16.95;100.00;101097.94;4961765;28;20590;-77
2021/08/30 05:19:05;;;;;;;18.98;16.98;;;;;;;16.90;100.00;101100.78;4973836;28;20208;-78
2021/08/30 05:21:31;;;;;;;18.90;16.90;;;;;;;16.91;100.00;101102.41;4973842;28;20309;-77
2021/08/30 05:23:57;;;;;;;18.73;16.83;;;;;;;16.94;100.00;101107.31;4979245;28;20209;-79
2021/08/30 05:26:23;;;;;;;18.98;16.92;;;;;;;17.01;100.00;101104.94;4957794;28;20230;-77
2021/08/30 05:28:48;;;;;;;21.33;17.05;;;;;;;16.88;100.00;101107.69;4976660;28;20186;-77
2021/08/30 05:31:16;;;;;;;18.90;15.93;;;;;;;16.91;100.00;101112.59;4977727;28;20691;-78
2021/08/30 05:33:42;;;;;;;19.70;16.73;;;;;;;16.91;100.00;101107.91;4993291;28;20189;-76
2021/08/30 05:36:11;;;;;;;18.50;15.57;;;;;;;16.91;100.00;101102.41;4976673;28;20275;-77
2021/08/30 05:38:37;;;;;;;18.95;16.15;;;;;;;16.93;100.00;101114.69;4992094;28;20186;-76
2021/08/30 05:41:03;;;;;;;17.67;15.57;;;;;;;16.95;100.00;101109.72;4992461;28;20213;-77
2021/08/30 05:43:28;;;;;;;18.02;16.13;;;;;;;16.95;100.00;101114.41;4997670;28;20213;-79
2021/08/30 05:45:54;;;;;;;17.45;15.65;;;;;;;16.92;100.00;101109.50;4991975;28;20316;-78
2021/08/30 05:48:20;;;;;;;21.30;16.80;;;;;;;16.96;100.00;101113.31;4993353;28;20573;-78
2021/08/30 05:50:45;;;;;;;17.93;15.57;;;;;;;16.95;100.00;101125.38;4977370;28;20272;-77
2021/08/30 05:53:11;;;;;;;16.95;15.15;;;;;;;16.93;100.00;101125.69;4996549;28;20715;-77
2021/08/30 05:55:37;;;;;;;16.25;14.55;;;;;;;16.96;100.00;101127.03;4996943;28;20715;-78
2021/08/30 05:58:05;;;;;;;16.80;15.00;;;;;;;16.95;100.00;101120.69;4980060;28;20543;-79
2021/08/30 06:00:33;;;;;;;17.23;14.90;;;;;;;16.93;100.00;101122.94;4976222;28;20703;-78
2021/08/30 06:03:01;;;;;;;16.20;14.50;;;;;;;16.99;100.00;101120.91;4987553;28;20209;-78
2021/08/30 06:05:26;;;;;;;16.90;14.13;;;;;;;17.03;100.00;101130.16;4995585;28;20659;-75
2021/08/30 06:07:52;;;;;;;16.05;14.25;;;;;;;17.00;100.00;101122.56;4992637;28;20205;-77
2021/08/30 06:10:20;;;;;;;15.32;13.80;;;;;;;17.15;100.00;101122.28;4995265;28;20185;-79
2021/08/30 06:12:45;;;;;;;15.05;13.55;;;;;;;17.06;100.00;101115.84;4995302;28;20172;-79
2021/08/30 06:15:11;;;;;;;15.80;13.47;;;;;;;17.04;100.00;101120.84;4993546;28;20193;-76
2021/08/30 06:17:39;;;;;;;16.42;13.60;;;;;;;17.08;100.00;101113.63;4992698;28;20205;-77
2021/08/30 06:20:06;;;;;;;15.32;13.38;;;;;;;17.15;100.00;101122.28;4993170;28;20617;-79
2021/08/30 06:22:32;;;;;;;14.60;13.05;;;;;;;17.18;100.00;101119.78;4995752;28;20233;-76
2021/08/30 06:24:57;;;;;;;13.48;12.18;;;;;;;17.28;100.00;101113.25;4995197;28;20199;-78
2021/08/30 06:27:28;;;;;;;13.43;12.13;;;;;;;17.25;100.00;101113.84;4978559;28;20280;-78
2021/08/30 06:29:57;;;;;;;12.57;11.35;;;;;;;17.25;100.00;101116.59;4977956;28;20174;-78
2021/08/30 06:32:25;;;;;;;13.15;11.85;;;;;;;17.19;100.00;101123.31;4976891;28;20272;-78
2021/08/30 06:34:50;;;;;;;13.50;12.18;;;;;;;17.23;100.00;101122.38;4983260;28;20566;-78
2021/08/30 06:37:19;;;;;;;13.55;12.25;;;;;;;17.18;100.00;101119.78;4981746;28;20217;-77
2021/08/30 06:39:54;;;;;;;13.20;11.82;;;;;;;17.22;100.00;101125.47;4981905;28;20194;-79
2021/08/30 06:42:19;;;;;;;12.48;11.18;;;;;;;17.19;100.00;101118.63;4996335;28;20232;-77
2021/08/30 06:44:45;;;;;;;12.88;11.65;;;;;;;17.31;100.00;101127.19;4996205;28;20193;-77
2021/08/30 06:47:11;;;;;;;12.23;11.02;;;;;;;17.31;100.00;101121.69;4979832;28;20309;-78
2021/08/30 06:49:40;;;;;;;11.70;10.10;;;;;;;17.43;100.00;101128.28;4966864;28;20185;-78
2021/08/30 06:52:08;;;;;;;13.03;10.73;;;;;;;17.57;100.00;101140.09;5001901;28;20240;-79
2021/08/30 06:54:41;;;;;;;11.90;9.88;;;;;;;17.44;100.00;101135.44;4959087;28;20186;-79
2021/08/30 06:57:07;;;;;;;10.48;9.50;;;;;;;17.42;100.00;101137.66;4968438;28;20225;-78
2021/08/30 06:59:32;;;;;;;10.68;9.70;;;;;;;17.34;100.00;101141.13;4993402;28;20190;-78
2021/08/30 07:01:58;;;;;;;12.00;9.32;;;;;;;17.44;100.00;101140.13;4995979;28;20225;-78
2021/08/30 07:04:23;;;;;;;10.18;9.25;;;;;;;17.35;100.00;101142.75;4993059;28;20217;-77
2021/08/30 07:06:51;;;;;;;10.75;9.40;;;;;;;17.32;100.00;101137.03;4990938;28;20749;-76
2021/08/30 07:09:23;;;;;;;10.07;8.68;;;;;;;17.29;100.00;101142.34;4958282;28;20181;-77
2021/08/30 07:11:49;;;;;;;10.70;9.48;;;;;;;17.30;100.00;101138.47;4991940;28;20606;-78
2021/08/30 07:14:15;;;;;;;11.98;9.63;;;;;;;17.36;100.00;101138.91;4976430;28;20686;-77
2021/08/30 07:16:40;;;;;;;10.83;8.90;;;;;;;17.41;100.00;101143.47;4990884;28;20221;-77
2021/08/30 07:19:08;;;;;;;9.57;8.73;;;;;;;17.38;100.00;101142.16;4991293;28;20200;-77
2021/08/30 07:21:39;;;;;;;10.50;9.45;;;;;;;17.46;100.00;101141.44;4946151;28;20603;-78
2021/08/30 07:24:08;;;;;;;10.05;9.05;;;;;;;17.59;100.00;101148.84;4978102;28;20214;-79
2021/08/30 07:26:36;;;;;;;10.75;8.77;;;;;;;17.54;100.00;101146.19;4992061;28;20324;-80
2021/08/30 07:29:05;;;;;;;10.88;9.80;;;;;;;17.78;100.00;101133.06;4979205;28;20702;-78
2021/08/30 07:31:30;;;;;;;10.30;9.07;;;;;;;17.84;100.00;101143.66;4993793;28;20213;-78
2021/08/30 07:33:59;;;;;;;9.63;8.20;;;;;;;17.92;100.00;101147.59;4980502;28;20240;-78
2021/08/30 07:36:30;;;;;;;8.88;7.97;;;;;;;17.73;100.00;101149.66;4992284;28;20248;-78
2021/08/30 07:39:00;;;;;;;8.45;7.50;;;;;;;17.81;100.00;101146.19;4974574;28;20206;-80
2021/08/30 07:41:29;;;;;;;9.65;8.02;;;;;;;17.70;100.00;101155.78;4973555;28;20230;-76
2021/08/30 07:43:55;;;;;;;8.95;8.00;;;;;;;17.76;100.00;101155.38;4996023;28;20198;-79
2021/08/30 07:46:20;;;;;;;9.27;8.38;;;;;;;17.74;100.00;101156.78;4998838;28;20298;-77
2021/08/30 07:48:48;;;;;;;8.63;7.80;;;;;;;17.82;100.00;101164.31;4997506;28;20220;-78
2021/08/30 07:51:16;;;;;;;9.20;8.38;;;;;;;17.84;100.00;101157.38;4966343;28;20229;-76
2021/08/30 07:53:44;;;;;;;9.85;8.05;;;;;;;17.75;100.00;101158.44;4995461;28;20189;-78
2021/08/30 07:56:10;;;;;;;9.35;8.45;;;;;;;17.78;100.00;101160.53;4996336;28;20235;-76
2021/08/30 07:58:38;;;;;;;8.48;7.55;;;;;;;17.70;100.00;101160.47;4995582;28;20212;-76
2021/08/30 08:01:04;;;;;;;8.90;7.93;;;;;;;17.74;100.00;101163.09;4978998;28;20261;-77
2021/08/30 08:03:31;;;;;;;8.80;7.95;;;;;;;17.81;100.00;101169.00;4997527;28;20248;-76
2021/08/30 08:05:57;;;;;;;9.27;7.72;;;;;;;17.92;100.00;101175.09;4995916;28;20288;-76
2021/08/30 08:08:23;;;;;;;8.98;7.47;;;;;;;17.93;100.00;101171.22;4978213;28;20185;-76
2021/08/30 08:10:48;;;;;;;9.38;7.55;;;;;;;17.97;100.00;101173.06;4979889;28;20272;-78
2021/08/30 08:13:14;;;;;;;7.80;7.03;;;;;;;18.13;100.00;101174.34;4999870;28;20193;-77
2021/08/30 08:15:42;;;;;;;7.72;6.95;;;;;;;18.11;100.00;101173.03;4999375;28;20224;-76
2021/08/30 08:18:08;;;;;;;8.10;7.20;;;;;;;18.28;100.00;101169.34;4997024;28;20209;-75
2021/08/30 08:20:39;;;;;;;8.48;6.82;;;;;;;18.40;100.00;101171.53;4996061;28;20255;-77
2021/08/30 08:23:08;;;;;;;9.02;6.75;;;;;;;18.31;100.00;101171.44;4997719;28;20228;-77
2021/08/30 08:25:34;;;;;;;7.53;6.72;;;;;;;18.48;100.00;101166.13;4968132;28;20296;-77
2021/08/30 08:28:03;;;;;;;8.50;6.85;;;;;;;18.38;100.00;101163.59;4997806;28;20205;-76
2021/08/30 08:30:31;;;;;;;8.00;6.70;;;;;;;18.20;100.00;101167.34;4994909;28;20221;-74
2021/08/30 08:32:57;;;;;;;8.20;6.32;;;;;;;18.33;100.00;101169.25;4997140;28;20185;-78
2021/08/30 08:35:23;;;;;;;8.73;6.72;;;;;;;18.37;100.00;101173.00;4980275;28;20257;-77
2021/08/30 08:37:51;;;;;;;7.43;6.78;;;;;;;18.32;100.00;101164.03;4997096;28;20201;-75
2021/08/30 08:40:19;;;;;;;7.55;6.40;;;;;;;18.08;100.00;101171.72;4994030;28;20182;-76
2021/08/30 08:42:47;;;;;;;6.95;6.28;;;;;;;18.02;100.00;101174.88;4994412;28;20194;-75
2021/08/30 08:45:17;;;;;;;9.85;7.00;;;;;;;17.92;100.00;101175.91;4995264;28;20186;-76
2021/08/30 08:47:43;;;;;;;7.50;6.72;;;;;;;17.90;100.00;101169.09;4994985;28;20602;-76
2021/08/30 08:50:12;;;;;;;7.38;6.60;;;;;;;17.93;100.00;101173.94;4979210;28;20169;-77
2021/08/30 08:52:42;;;;;;;7.50;6.80;;;;;;;17.95;100.00;101174.50;4981156;28;20189;-78
2021/08/30 08:55:08;;;;;;;7.95;7.18;;;;;;;17.91;100.00;101167.97;4990688;28;20189;-79
2021/08/30 08:57:33;;;;;;;7.70;6.93;;;;;;;17.90;100.00;101174.59;4997514;28;20451;-75
2021/08/30 09:00:02;;;;;;;8.00;7.20;;;;;;;17.93;100.00;101176.69;4981229;28;20189;-75
2021/08/30 09:02:33;;;;;;;8.15;7.28;;;;;;;17.93;100.00;101173.94;4978953;28;20229;-73
2021/08/30 09:05:03;;;;;;;7.93;7.03;;;;;;;18.00;100.00;101171.63;4979871;28;20197;-73
2021/08/30 09:07:41;;;;;;;8.05;7.30;;;;;;;18.03;100.00;101182.00;4963103;28;20226;-75
2021/08/30 09:10:16;;;;;;;8.77;7.20;;;;;;;18.12;100.00;101181.81;4971296;28;20198;-77
2021/08/30 09:12:46;;;;;;;7.10;6.30;;;;;;;18.23;100.00;101179.66;4978675;28;20749;-76
2021/08/30 09:15:16;;;;;;;7.33;5.97;;;;;;;18.17;100.00;101173.44;4994943;28;20730;-72
2021/08/30 09:17:54;;;;;;;7.05;6.30;;;;;;;18.21;100.00;101177.19;4979402;28;20202;-74
2021/08/30 09:20:23;;;;;;;8.15;6.40;;;;;;;18.35;100.00;101180.75;4980342;28;20189;-77
2021/08/30 09:22:48;;;;;;;7.88;7.10;;;;;;;18.38;100.00;101180.09;4964503;28;20276;-74
2021/08/30 09:25:14;;;;;;;11.25;7.57;;;;;;;18.28;100.00;101185.84;4991375;28;20277;-75
2021/08/30 09:27:50;;;;;;;7.35;6.65;;;;;;;18.25;100.00;101183.72;4995132;28;20202;-76
2021/08/30 09:30:16;;;;;;;10.85;6.88;;;;;;;18.20;100.00;101183.84;4985876;28;20527;-73
2021/08/30 09:32:50;;;;;;;8.18;7.38;;;;;;;18.02;100.00;101180.38;4993715;28;20177;-71
2021/08/30 09:35:18;;;;;;;8.55;7.65;;;;;;;18.01;100.00;101189.75;4991649;28;20272;-74
2021/08/30 09:37:44;;;;;;;8.57;7.78;;;;;;;17.92;100.00;101183.34;4961480;28;20694;-74
2021/08/30 09:40:18;;;;;;;8.13;7.10;;;;;;;17.82;100.00;101186.31;4992401;28;20224;-73
2021/08/30 09:42:51;;;;;;;8.90;7.90;;;;;;;17.76;100.00;101187.53;4996846;28;20189;-76
2021/08/30 09:45:20;;;;;;;9.75;7.82;;;;;;;17.80;100.00;101183.88;4981321;28;20599;-77
2021/08/30 09:47:50;;;;;;;8.52;7.70;;;;;;;17.80;100.00;101183.03;4962711;28;20691;-77
2021/08/30 09:50:16;;;;;;;8.40;7.50;;;;;;;17.95;100.00;101180.00;4996964;28;20198;-77
2021/08/30 09:52:41;;;;;;;7.60;6.88;;;;;;;18.02;100.00;101191.38;4998335;28;20173;-78
2021/08/30 09:55:09;;;;;;;8.60;7.57;;;;;;;18.04;100.00;101184.44;4991963;28;20247;-80
2021/08/30 09:57:35;;;;;;;8.10;7.18;;;;;;;18.00;100.00;101193.59;4981396;28;20205;-79
2021/08/30 10:00:04;;;;;;;8.20;7.40;;;;;;;18.12;100.00;101188.44;4963970;28;20253;-78
2021/08/30 10:02:36;;;;;;;7.72;7.03;;;;;;;17.96;100.00;101196.16;5536418;23;21598;-79
2021/08/30 10:05:03;;;;;;;8.50;7.70;;;;;;;18.08;100.00;101196.47;5001128;28;20201;-77
2021/08/30 10:07:33;;;;;;;8.00;7.28;;;;;;;17.98;100.00;101201.34;4979782;28;20237;-79
2021/08/30 10:09:58;;;;;;;7.47;6.78;;;;;;;17.80;100.00;101194.03;5009196;28;20660;-77
2021/08/30 10:12:29;;;;;;;7.68;6.97;;;;;;;17.85;100.00;101200.22;4970568;28;20236;-80
2021/08/30 10:14:54;;;;;;;7.47;6.80;;;;;;;17.72;100.00;101202.19;4982357;28;20181;-78
2021/08/30 10:17:20;;;;;;;8.07;7.38;;;;;;;17.76;100.00;101193.84;5004608;28;20255;-80
2021/08/30 10:19:55;;;;;;;7.93;7.18;;;;;;;17.96;100.00;101198.91;5012625;28;20186;-79
2021/08/30 10:22:20;;;;;;;7.93;7.00;;;;;;;18.21;100.00;101199.22;4978941;28;20231;-78
2021/08/30 10:24:49;;;;;;;7.00;6.30;;;;;;;18.33;100.00;101196.75;5009467;28;20214;-76
2021/08/30 10:27:25;;;;;;;6.85;6.15;;;;;;;18.70;100.00;101188.13;4998487;28;20233;-77
2021/08/30 10:30:04;;;;;;;7.28;6.57;;;;;;;18.94;100.00;101172.94;4985249;28;20187;-74
2021/08/30 10:32:36;;;;;;;6.50;5.90;;;;;;;18.81;100.00;101184.00;5001335;28;20231;-74
2021/08/30 10:35:20;;;;;;;6.60;5.93;;;;;;;19.01;100.00;101178.81;4977446;28;20194;-74
2021/08/30 10:37:57;;;;;;;6.82;5.50;;;;;;;19.24;100.00;101184.00;4996424;28;20288;-77
2021/08/30 10:40:22;;;;;;;6.82;6.10;;;;;;;19.07;100.00;101178.41;4961548;28;20281;-79
2021/08/30 10:43:18;;;;;;;9.40;5.88;;;;;;;19.15;100.00;101179.56;4981480;28;20181;-77
2021/08/30 10:45:57;;;;;;;5.90;5.32;;;;;;;19.01;100.00;101185.16;4988558;28;20269;-78
2021/08/30 10:48:51;;;;;;;5.70;5.18;;;;;;;18.90;100.00;101183.75;4979453;28;20246;-77
2021/08/30 10:51:25;;;;;;;6.05;4.45;;;;;;;18.86;100.00;101187.44;4995514;28;20225;-77
2021/08/30 10:54:00;;;;;;;5.03;4.63;;;;;;;18.90;100.00;101183.75;4976986;28;20557;-77
2021/08/30 10:56:30;;;;;;;5.03;4.53;;;;;;;18.98;100.00;101183.03;4977721;28;20947;-76
2021/08/30 10:59:07;;;;;;;5.28;4.78;;;;;;;19.22;100.00;101194.53;4965360;28;20182;-78
2021/08/30 11:01:38;;;;;;;4.60;4.20;;;;;;;18.99;100.00;101195.69;5000767;28;20216;-76
2021/08/30 11:04:12;;;;;;;4.43;4.03;;;;;;;19.07;100.00;101183.91;4981308;28;20205;-78
2021/08/30 11:06:42;;;;;;;4.72;4.13;;;;;;;19.03;100.00;101182.91;4963950;28;20235;-77
2021/08/30 11:09:16;;;;;;;4.55;4.18;;;;;;;19.12;100.00;101186.53;4988269;28;20197;-78
2021/08/30 11:11:44;;;;;;;4.93;4.00;;;;;;;19.22;100.00;101180.75;4976997;28;20232;-76
2021/08/30 11:14:10;;;;;;;4.55;4.15;;;;;;;19.00;100.00;101194.53;4980775;28;20178;-77
2021/08/30 11:16:36;;;;;;;5.55;4.68;;;;;;;19.07;100.00;101192.16;4991206;28;20219;-78